Time;durP1;ratioP1;P1;durP2;ratioP2;P2;SDS_P1;SDS_P2;PMS_P1;PMS_P2;Temp;Humidity;BMP_temperature;BMP_pressure;BME280_temperature;BME280_humidity;BME280_pressure;Samples;Min_cycle;Max_cycle;Signal;HPM_P1;HPM_P2
2023/04/06 00:01:37;;;;;;;74.38;29.48;;;;;;;-1.81;51.18;98870.59;5089905;28;20027;-69
2023/04/06 00:04:03;;;;;;;78.47;29.15;;;;;;;-1.79;51.29;98867.69;5088908;28;20032;-69
2023/04/06 00:06:29;;;;;;;83.38;29.45;;;;;;;-1.80;51.49;98872.25;5088810;28;21402;-68
2023/04/06 00:08:56;;;;;;;73.45;29.50;;;;;;;-1.80;51.86;98863.34;5071172;28;20062;-69
2023/04/06 00:11:21;;;;;;;76.70;29.45;;;;;;;-1.81;51.29;98870.59;5088568;28;20035;-69
2023/04/06 00:13:47;;;;;;;79.90;29.27;;;;;;;-1.83;51.56;98869.16;5086825;28;20024;-69
2023/04/06 00:16:12;;;;;;;78.90;29.48;;;;;;;-1.84;51.36;98864.81;5088677;28;20031;-69
2023/04/06 00:18:37;;;;;;;67.07;26.35;;;;;;;-1.89;51.25;98857.38;5088134;28;20495;-69
2023/04/06 00:21:03;;;;;;;75.15;28.98;;;;;;;-1.91;51.67;98867.50;5087499;28;20207;-71
2023/04/06 00:23:29;;;;;;;67.15;27.10;;;;;;;-1.93;51.81;98866.03;5089288;28;20036;-70
2023/04/06 00:25:55;;;;;;;65.32;27.70;;;;;;;-1.93;51.75;98860.66;5087389;28;20068;-70
2023/04/06 00:28:25;;;;;;;66.63;27.23;;;;;;;-1.96;51.55;98861.91;5089866;28;20035;-70
2023/04/06 00:30:52;;;;;;;63.30;26.85;;;;;;;-1.99;52.02;98862.31;5087050;28;20120;-70
2023/04/06 00:33:18;;;;;;;63.22;27.27;;;;;;;-2.01;51.76;98862.50;5088128;28;20039;-70
2023/04/06 00:35:43;;;;;;;66.15;28.63;;;;;;;-2.02;52.01;98855.47;5070616;28;20036;-70
2023/04/06 00:38:08;;;;;;;70.05;28.05;;;;;;;-2.05;52.05;98865.81;5086508;28;20111;-70
2023/04/06 00:40:35;;;;;;;63.17;28.80;;;;;;;-2.07;52.01;98870.56;5087920;28;20036;-70
2023/04/06 00:43:00;;;;;;;63.50;28.60;;;;;;;-2.09;51.97;98865.41;5080146;28;20071;-70
2023/04/06 00:45:26;;;;;;;60.80;29.15;;;;;;;-2.13;52.32;98861.47;5070370;28;20033;-70
2023/04/06 00:47:51;;;;;;;67.65;30.05;;;;;;;-2.18;52.17;98862.03;5070601;28;20036;-69
2023/04/06 00:50:17;;;;;;;70.93;32.58;;;;;;;-2.21;52.32;98861.63;5063801;28;20032;-70
2023/04/06 00:52:42;;;;;;;69.07;31.95;;;;;;;-2.23;52.78;98864.50;5052245;28;20024;-70
2023/04/06 00:55:08;;;;;;;78.45;36.47;;;;;;;-2.26;52.71;98860.38;5068495;28;20025;-70
2023/04/06 00:57:34;;;;;;;72.35;33.40;;;;;;;-2.30;53.10;98859.13;5049089;28;20452;-70
2023/04/06 00:59:59;;;;;;;76.82;34.85;;;;;;;-2.29;52.66;98854.59;5066336;28;20028;-70
2023/04/06 01:02:25;;;;;;;71.32;32.65;;;;;;;-2.31;53.12;98862.84;5064885;28;20443;-70
2023/04/06 01:04:53;;;;;;;68.55;31.25;;;;;;;-2.33;52.95;98859.53;5070729;28;20028;-71
2023/04/06 01:07:19;;;;;;;68.88;30.63;;;;;;;-2.33;53.13;98856.84;5062429;28;20056;-70
2023/04/06 01:09:44;;;;;;;64.50;30.05;;;;;;;-2.34;52.95;98859.75;5062813;28;20136;-70
2023/04/06 01:12:10;;;;;;;68.28;32.60;;;;;;;-2.36;52.92;98862.63;5054125;28;20028;-70
2023/04/06 01:14:35;;;;;;;69.03;32.65;;;;;;;-2.38;53.23;98859.31;5070517;28;20024;-70
2023/04/06 01:17:01;;;;;;;70.75;33.25;;;;;;;-2.40;53.21;98862.22;5065770;28;20029;-70
2023/04/06 01:19:26;;;;;;;67.15;30.13;;;;;;;-2.38;53.42;98861.19;5059048;28;20366;-70
2023/04/06 01:21:53;;;;;;;64.82;31.55;;;;;;;-2.39;53.32;98863.03;5060594;28;20500;-70
2023/04/06 01:24:19;;;;;;;68.72;31.20;;;;;;;-2.42;53.63;98863.41;5072783;28;20028;-70
2023/04/06 01:26:45;;;;;;;69.93;32.05;;;;;;;-2.41;53.58;98855.19;5071631;28;20047;-70
2023/04/06 01:29:10;;;;;;;71.13;32.95;;;;;;;-2.43;53.57;98853.72;5063530;28;20025;-70
2023/04/06 01:31:36;;;;;;;64.82;31.35;;;;;;;-2.45;53.75;98853.09;5064315;28;20052;-70
2023/04/06 01:34:01;;;;;;;64.95;29.67;;;;;;;-2.46;53.66;98859.50;5070242;28;20381;-70
2023/04/06 01:36:26;;;;;;;63.53;29.55;;;;;;;-2.46;54.06;98854.13;5064968;28;20494;-70
2023/04/06 01:38:52;;;;;;;60.03;30.00;;;;;;;-2.47;53.96;98855.97;5070080;28;20025;-70
2023/04/06 01:41:18;;;;;;;60.80;29.33;;;;;;;-2.49;54.10;98854.53;5057294;28;20846;-70
2023/04/06 01:43:44;;;;;;;63.90;30.98;;;;;;;-2.51;54.35;98857.41;5077453;28;20131;-70
2023/04/06 01:46:10;;;;;;;72.13;31.77;;;;;;;-2.52;53.97;98847.69;5092474;28;20391;-70
2023/04/06 01:48:36;;;;;;;69.25;31.30;;;;;;;-2.52;54.27;98853.06;5093608;28;20024;-70
2023/04/06 01:51:01;;;;;;;60.85;30.95;;;;;;;-2.53;54.28;98856.78;5089663;28;20082;-70
2023/04/06 01:53:27;;;;;;;62.33;31.00;;;;;;;-2.59;54.29;98852.22;5084140;28;20500;-70
2023/04/06 01:55:52;;;;;;;70.70;32.25;;;;;;;-2.61;54.38;98848.91;5087119;28;20052;-70
2023/04/06 01:58:18;;;;;;;71.75;32.58;;;;;;;-2.67;54.33;98850.53;5078030;28;20485;-70
2023/04/06 02:00:43;;;;;;;66.40;30.42;;;;;;;-2.66;54.70;98854.06;5079788;28;20024;-70
2023/04/06 02:03:08;;;;;;;72.75;31.88;;;;;;;-2.68;54.57;98850.75;5073994;28;20025;-70
2023/04/06 02:05:37;;;;;;;69.68;30.90;;;;;;;-2.72;54.61;98858.34;5073968;28;20396;-70
2023/04/06 02:08:06;;;;;;;77.05;31.20;;;;;;;-2.72;54.65;98851.16;5073488;28;20055;-70
2023/04/06 02:10:34;;;;;;;74.80;32.60;;;;;;;-2.73;54.34;98849.50;5073223;28;20420;-70
2023/04/06 02:13:00;;;;;;;70.05;31.95;;;;;;;-2.73;54.67;98844.13;5076611;28;20043;-70
2023/04/06 02:15:26;;;;;;;67.10;32.10;;;;;;;-2.71;55.09;98846.59;5072216;28;20427;-70
2023/04/06 02:17:51;;;;;;;73.60;32.05;;;;;;;-2.73;55.18;98841.44;5085182;28;20027;-70
2023/04/06 02:20:17;;;;;;;68.75;32.30;;;;;;;-2.72;54.95;98844.94;5087858;28;20043;-70
2023/04/06 02:22:42;;;;;;;75.05;32.10;;;;;;;-2.73;54.96;98846.81;5087205;28;20035;-70
2023/04/06 02:25:08;;;;;;;78.82;33.60;;;;;;;-2.73;55.34;98844.13;5085543;28;20068;-70
2023/04/06 02:27:34;;;;;;;80.50;35.13;;;;;;;-2.76;54.95;98844.53;5087664;28;20084;-70
2023/04/06 02:29:59;;;;;;;79.05;35.15;;;;;;;-2.75;54.91;98843.50;5083028;28;20020;-71
2023/04/06 02:32:25;;;;;;;83.57;36.33;;;;;;;-2.76;55.17;98844.53;5085489;28;20060;-70
2023/04/06 02:34:51;;;;;;;92.13;37.25;;;;;;;-2.77;55.26;98842.88;5084465;28;20027;-70
2023/04/06 02:37:16;;;;;;;80.10;35.47;;;;;;;-2.78;55.45;98843.88;5087072;28;20111;-70
2023/04/06 02:39:41;;;;;;;81.45;35.22;;;;;;;-2.79;55.17;98844.06;5085065;28;20024;-70
2023/04/06 02:42:08;;;;;;;82.35;35.83;;;;;;;-2.79;55.59;98852.97;5085456;28;20035;-70
2023/04/06 02:44:34;;;;;;;86.80;37.13;;;;;;;-2.80;55.26;98845.09;5065546;28;20045;-70
2023/04/06 02:47:00;;;;;;;90.22;37.22;;;;;;;-2.81;55.40;98846.97;5064943;28;20031;-71
2023/04/06 02:49:26;;;;;;;84.80;35.88;;;;;;;-2.86;55.54;98852.94;5065393;28;20064;-71
2023/04/06 02:51:51;;;;;;;81.88;36.22;;;;;;;-2.87;55.37;98845.06;5065758;28;20429;-70
2023/04/06 02:54:17;;;;;;;81.95;34.97;;;;;;;-2.86;55.29;98849.41;5065729;28;20052;-70
2023/04/06 02:56:43;;;;;;;75.75;35.67;;;;;;;-2.86;55.69;98852.94;5060997;28;20035;-70
2023/04/06 02:59:08;;;;;;;79.53;34.72;;;;;;;-2.86;55.77;98852.94;5062141;28;20043;-71
2023/04/06 03:01:34;;;;;;;76.15;34.50;;;;;;;-2.85;55.68;98851.06;5060248;28;20917;-71
2023/04/06 03:03:59;;;;;;;81.05;35.40;;;;;;;-2.82;55.85;98847.16;5066262;28;20021;-71
2023/04/06 03:06:24;;;;;;;75.72;34.28;;;;;;;-2.80;56.07;98845.09;5064361;28;20472;-70
2023/04/06 03:08:50;;;;;;;77.10;34.08;;;;;;;-2.79;55.97;98839.53;5065294;28;20078;-71
2023/04/06 03:11:15;;;;;;;81.18;36.15;;;;;;;-2.79;56.08;98850.28;5065767;28;20036;-70
2023/04/06 03:13:41;;;;;;;78.38;35.38;;;;;;;-2.78;56.06;98841.19;5065216;28;20032;-71
2023/04/06 03:16:06;;;;;;;83.97;35.10;;;;;;;-2.78;55.58;98846.56;5065725;28;20029;-71
2023/04/06 03:18:32;;;;;;;85.68;36.50;;;;;;;-2.78;55.94;98851.09;5048215;28;20017;-71
2023/04/06 03:20:58;;;;;;;89.72;36.83;;;;;;;-2.83;55.82;98854.41;5064661;28;20116;-71
2023/04/06 03:23:23;;;;;;;85.97;37.95;;;;;;;-2.87;56.31;98855.81;5066243;28;20028;-70
2023/04/06 03:25:49;;;;;;;89.25;39.63;;;;;;;-2.87;55.70;98855.81;5065931;28;20034;-70
2023/04/06 03:28:15;;;;;;;98.75;38.78;;;;;;;-2.90;55.88;98851.69;5066997;28;20358;-70
2023/04/06 03:30:41;;;;;;;99.75;41.20;;;;;;;-2.94;56.08;98853.09;5065426;28;20035;-70
2023/04/06 03:33:06;;;;;;;93.22;38.40;;;;;;;-2.98;56.41;98857.22;5063641;28;20029;-70
2023/04/06 03:35:32;;;;;;;81.45;37.72;;;;;;;-2.97;56.26;98860.72;5066542;28;20025;-70
2023/04/06 03:37:57;;;;;;;89.93;36.28;;;;;;;-3.00;56.53;98862.75;5064840;28;20047;-70
2023/04/06 03:40:23;;;;;;;84.70;35.03;;;;;;;-2.97;56.66;98866.06;5065459;28;20017;-70
2023/04/06 03:42:48;;;;;;;78.57;34.65;;;;;;;-2.98;56.45;98865.25;5064267;28;20047;-70
2023/04/06 03:45:14;;;;;;;85.28;35.13;;;;;;;-2.99;56.26;98856.38;5064019;28;20097;-70
2023/04/06 03:47:40;;;;;;;82.97;35.65;;;;;;;-3.00;56.43;98864.63;5064433;28;20384;-70
2023/04/06 03:50:06;;;;;;;85.05;34.90;;;;;;;-3.02;56.25;98864.81;5065376;28;20032;-70
2023/04/06 03:52:31;;;;;;;84.32;35.75;;;;;;;-3.05;56.56;98862.53;5047166;28;20028;-70
2023/04/06 03:54:56;;;;;;;82.85;36.97;;;;;;;-3.07;56.83;98861.91;5067069;28;20503;-70
2023/04/06 03:57:22;;;;;;;92.20;38.38;;;;;;;-3.10;57.13;98865.00;5049555;28;20036;-70
2023/04/06 03:59:47;;;;;;;84.38;36.63;;;;;;;-3.14;56.69;98856.50;5055360;28;20060;-70
2023/04/06 04:02:13;;;;;;;108.30;43.75;;;;;;;-3.15;56.67;98854.03;5051513;28;20029;-70
2023/04/06 04:04:38;;;;;;;120.28;45.72;;;;;;;-3.18;56.73;98860.59;5049350;28;20462;-70
2023/04/06 04:07:03;;;;;;;111.50;44.15;;;;;;;-3.20;56.80;98872.56;5051237;28;20082;-70
2023/04/06 04:09:29;;;;;;;119.28;44.67;;;;;;;-3.24;56.96;98877.47;5050796;28;20040;-70
2023/04/06 04:11:54;;;;;;;121.90;44.45;;;;;;;-3.26;56.89;98876.84;5056992;28;20037;-71
2023/04/06 04:14:20;;;;;;;118.15;43.67;;;;;;;-3.30;57.12;98870.25;5071221;28;20024;-70
2023/04/06 04:16:45;;;;;;;126.15;43.95;;;;;;;-3.28;56.94;98873.56;5071119;28;20028;-71
2023/04/06 04:19:10;;;;;;;131.00;44.75;;;;;;;-3.27;56.87;98869.84;5070887;28;20039;-71
2023/04/06 04:21:45;;;;;;;122.82;43.65;;;;;;;-3.27;57.16;98869.00;5052036;28;20099;-70
2023/04/06 04:24:11;;;;;;;119.47;42.35;;;;;;;-3.27;57.39;98869.00;5068587;28;20020;-70
2023/04/06 04:26:38;;;;;;;116.07;40.97;;;;;;;-3.29;57.31;98875.41;5068819;28;20089;-70
2023/04/06 04:29:04;;;;;;;117.88;41.80;;;;;;;-3.30;57.31;98873.72;5063273;28;20041;-70
2023/04/06 04:31:30;;;;;;;115.93;42.55;;;;;;;-3.29;57.53;98870.03;5065603;28;20101;-70
2023/04/06 04:33:55;;;;;;;111.45;39.83;;;;;;;-3.29;57.55;98870.03;5063178;28;20435;-70
2023/04/06 04:36:21;;;;;;;105.75;38.47;;;;;;;-3.29;57.35;98875.41;5026287;28;20016;-70
2023/04/06 04:38:46;;;;;;;118.50;42.28;;;;;;;-3.27;57.54;98874.38;5058982;28;20025;-70
2023/04/06 04:41:11;;;;;;;118.43;42.33;;;;;;;-3.27;57.49;98871.69;5051775;28;20024;-70
2023/04/06 04:43:37;;;;;;;116.55;41.88;;;;;;;-3.29;57.48;98870.03;5067004;28;20051;-70
2023/04/06 04:46:04;;;;;;;143.45;47.55;;;;;;;-3.25;57.82;98872.31;5065152;28;20069;-71
2023/04/06 04:48:30;;;;;;;158.35;51.13;;;;;;;-3.27;57.77;98872.53;5065355;28;20414;-71
2023/04/06 04:50:55;;;;;;;158.85;52.85;;;;;;;-3.23;57.81;98864.91;5063401;28;20166;-71
2023/04/06 04:53:21;;;;;;;139.30;47.38;;;;;;;-3.23;57.74;98872.94;5061335;28;20021;-70
2023/04/06 04:55:46;;;;;;;143.30;46.70;;;;;;;-3.21;57.78;98870.91;5051693;28;20052;-70
2023/04/06 04:58:16;;;;;;;161.48;50.42;;;;;;;-3.19;57.81;98869.66;5066948;28;20029;-70
2023/04/06 05:00:42;;;;;;;155.20;50.78;;;;;;;-3.15;58.12;98878.97;5054162;28;20139;-70
2023/04/06 05:03:08;;;;;;;212.45;54.30;;;;;;;-3.13;58.01;98873.44;5070860;28;20111;-70
2023/04/06 05:05:33;;;;;;;181.90;49.10;;;;;;;-3.12;58.01;98875.09;5068483;28;20016;-70
2023/04/06 05:07:59;;;;;;;198.30;53.05;;;;;;;-3.08;58.17;98867.47;5067567;28;20028;-70
2023/04/06 05:10:24;;;;;;;256.13;61.33;;;;;;;-3.04;58.26;98877.59;5067286;28;20447;-70
2023/04/06 05:12:50;;;;;;;245.32;59.33;;;;;;;-3.01;57.98;98868.34;5062911;28;20370;-70
2023/04/06 05:15:15;;;;;;;215.25;53.65;;;;;;;-2.97;58.28;98868.75;5068606;28;20503;-70
2023/04/06 05:17:41;;;;;;;223.90;55.33;;;;;;;-2.94;58.36;98873.75;5053147;28;20024;-70
2023/04/06 05:20:06;;;;;;;287.35;62.83;;;;;;;-2.90;58.33;98881.22;5068037;28;20013;-70
2023/04/06 05:22:32;;;;;;;293.40;63.20;;;;;;;-2.84;58.31;98875.03;5069592;28;20013;-70
2023/04/06 05:24:57;;;;;;;270.77;61.25;;;;;;;-2.78;58.43;98881.47;5068403;28;20512;-71
2023/04/06 05:27:23;;;;;;;229.13;54.97;;;;;;;-2.73;58.30;98873.66;5064848;28;20491;-71
2023/04/06 05:29:49;;;;;;;234.40;54.60;;;;;;;-2.64;58.53;98879.69;5065873;28;20020;-71
2023/04/06 05:32:14;;;;;;;217.20;53.30;;;;;;;-2.56;58.46;98878.66;5054364;28;20069;-70
2023/04/06 05:34:40;;;;;;;197.27;51.97;;;;;;;-2.49;58.83;98865.28;5072061;28;20115;-70
2023/04/06 05:37:05;;;;;;;178.80;49.22;;;;;;;-2.41;58.71;98871.28;5070874;28;20028;-70
2023/04/06 05:39:31;;;;;;;155.88;46.47;;;;;;;-2.34;58.48;98868.63;5068554;28;20111;-70
2023/04/06 05:41:56;;;;;;;132.25;43.83;;;;;;;-2.27;58.96;98866.78;5066139;28;20434;-70
2023/04/06 05:44:22;;;;;;;115.00;42.70;;;;;;;-2.17;58.96;98869.06;5066574;28;20121;-70
2023/04/06 05:46:47;;;;;;;124.28;43.92;;;;;;;-2.08;58.86;98866.22;5065018;28;20127;-70
2023/04/06 05:49:13;;;;;;;101.35;39.80;;;;;;;-2.03;58.87;98869.13;5062438;28;20820;-71
2023/04/06 05:51:38;;;;;;;96.72;38.50;;;;;;;-1.94;58.88;98865.22;5068550;28;20085;-70
2023/04/06 05:54:03;;;;;;;93.40;38.92;;;;;;;-1.84;59.35;98854.88;5070522;28;20028;-70
2023/04/06 05:56:30;;;;;;;112.15;43.60;;;;;;;-1.74;59.20;98861.69;5068039;28;20043;-70
2023/04/06 05:58:55;;;;;;;93.82;40.20;;;;;;;-1.68;59.15;98856.34;5067622;28;20025;-71
2023/04/06 06:01:20;;;;;;;109.00;44.08;;;;;;;-1.61;59.19;98866.25;5064560;28;20465;-70
2023/04/06 06:03:46;;;;;;;104.22;43.45;;;;;;;-1.56;59.28;98867.31;5064421;28;20400;-70
2023/04/06 06:06:11;;;;;;;117.78;46.03;;;;;;;-1.48;58.82;98862.75;5064071;28;20427;-70
2023/04/06 06:08:37;;;;;;;92.20;40.40;;;;;;;-1.38;59.43;98858.59;5070148;28;20038;-71
2023/04/06 06:11:03;;;;;;;70.43;34.03;;;;;;;-1.27;59.55;98861.69;5069052;28;20025;-70
2023/04/06 06:13:28;;;;;;;71.03;32.55;;;;;;;-1.15;59.63;98864.56;5070719;28;20040;-71
2023/04/06 06:15:53;;;;;;;68.88;33.03;;;;;;;-1.09;59.50;98858.34;5067034;28;20097;-70
2023/04/06 06:18:20;;;;;;;72.28;34.38;;;;;;;-1.00;59.30;98862.44;5062055;28;20033;-69
2023/04/06 06:20:45;;;;;;;67.20;31.42;;;;;;;-0.91;59.26;98858.50;5066596;28;20392;-69
2023/04/06 06:23:17;;;;;;;67.18;33.30;;;;;;;-0.80;59.19;98856.19;5061661;28;20037;-68
2023/04/06 06:25:42;;;;;;;69.38;32.00;;;;;;;-0.67;59.58;98864.25;5068805;28;20024;-69
2023/04/06 06:28:08;;;;;;;84.30;38.92;;;;;;;-0.56;59.41;98856.50;5059909;28;20381;-69
2023/04/06 06:30:33;;;;;;;86.07;40.90;;;;;;;-0.48;59.39;98861.66;5050975;28;20141;-69
2023/04/06 06:32:59;;;;;;;78.75;37.50;;;;;;;-0.39;59.43;98852.31;5061845;28;20043;-69
2023/04/06 06:35:24;;;;;;;68.05;31.42;;;;;;;-0.26;59.24;98858.69;5065138;28;20037;-69
2023/04/06 06:37:50;;;;;;;56.72;26.80;;;;;;;-0.17;59.23;98857.34;5060211;28;20037;-69
2023/04/06 06:40:17;;;;;;;55.08;26.20;;;;;;;-0.07;59.29;98857.72;5071120;28;20025;-69
2023/04/06 06:42:43;;;;;;;47.85;25.38;;;;;;;0.04;59.30;98863.47;5070304;28;20488;-70
2023/04/06 06:45:09;;;;;;;51.30;23.88;;;;;;;0.10;59.17;98858.03;5090272;28;20095;-70
2023/04/06 06:47:34;;;;;;;45.20;23.42;;;;;;;0.19;58.62;98855.91;5089563;28;20024;-69
2023/04/06 06:50:00;;;;;;;41.72;22.15;;;;;;;0.31;58.94;98852.47;5090166;28;20545;-69
2023/04/06 06:52:28;;;;;;;51.30;22.98;;;;;;;0.39;58.74;98854.91;5090323;28;20115;-69
2023/04/06 06:54:54;;;;;;;39.38;20.15;;;;;;;0.51;59.10;98852.31;5089694;28;20017;-69
2023/04/06 06:57:19;;;;;;;36.95;18.77;;;;;;;0.65;58.99;98851.16;5090717;28;20016;-68
2023/04/06 06:59:45;;;;;;;30.65;16.27;;;;;;;0.77;58.83;98850.44;5087887;28;20020;-69
2023/04/06 07:02:10;;;;;;;36.25;18.13;;;;;;;0.86;58.14;98844.53;5089588;28;20043;-68
2023/04/06 07:04:35;;;;;;;31.23;16.38;;;;;;;0.97;58.42;98847.53;5087839;28;20416;-67
2023/04/06 07:07:01;;;;;;;25.15;13.63;;;;;;;1.04;58.25;98848.28;5083712;28;20024;-69
2023/04/06 07:09:26;;;;;;;23.55;12.63;;;;;;;1.12;57.67;98855.28;5088644;28;20035;-68
2023/04/06 07:11:52;;;;;;;24.70;12.95;;;;;;;1.18;57.66;98854.38;5086496;28;20024;-69
2023/04/06 07:14:17;;;;;;;28.10;14.02;;;;;;;1.25;57.67;98851.59;5088471;28;20048;-69
2023/04/06 07:16:44;;;;;;;29.23;15.95;;;;;;;1.32;58.01;98852.34;5090941;28;20032;-69
2023/04/06 07:19:10;;;;;;;32.58;14.70;;;;;;;1.36;57.13;98858.97;5083416;28;20107;-69
2023/04/06 07:21:36;;;;;;;26.95;16.02;;;;;;;1.40;57.00;98860.16;5089293;28;20807;-69
2023/04/06 07:24:01;;;;;;;35.60;18.45;;;;;;;1.42;57.17;98859.91;5086635;28;20016;-69
2023/04/06 07:26:27;;;;;;;32.92;16.48;;;;;;;1.45;57.03;98859.47;5090483;28;20031;-68
2023/04/06 07:28:53;;;;;;;35.13;19.20;;;;;;;1.49;56.70;98857.97;5090220;28;20020;-69
2023/04/06 07:31:18;;;;;;;31.23;17.33;;;;;;;1.55;57.28;98869.75;5090126;28;20517;-68
2023/04/06 07:33:44;;;;;;;26.83;12.20;;;;;;;1.60;56.78;98864.47;5086025;28;20028;-69
2023/04/06 07:36:09;;;;;;;21.80;12.45;;;;;;;1.62;56.16;98868.63;5087223;28;20103;-69
2023/04/06 07:38:35;;;;;;;23.00;12.35;;;;;;;1.67;56.77;98864.38;5085970;28;21524;-69
2023/04/06 07:41:02;;;;;;;16.48;9.82;;;;;;;1.72;56.50;98872.66;5086963;28;20511;-69
2023/04/06 07:43:28;;;;;;;16.77;9.70;;;;;;;1.77;56.39;98868.22;5069398;28;20045;-69
2023/04/06 07:45:54;;;;;;;15.73;8.60;;;;;;;1.84;56.41;98876.22;5062656;28;20523;-69
2023/04/06 07:48:20;;;;;;;14.98;8.85;;;;;;;1.93;55.69;98876.72;5059231;28;20032;-68
2023/04/06 07:50:45;;;;;;;13.68;8.05;;;;;;;1.95;54.91;98865.69;5051285;28;20029;-68
2023/04/06 07:53:10;;;;;;;16.02;9.30;;;;;;;1.95;54.95;98869.22;5065181;28;20025;-69
2023/04/06 07:55:36;;;;;;;18.50;9.55;;;;;;;1.99;55.25;98867.69;5052475;28;20048;-69
2023/04/06 07:58:01;;;;;;;16.75;9.77;;;;;;;2.07;55.03;98872.78;5051626;28;20032;-69
2023/04/06 08:00:27;;;;;;;22.38;10.88;;;;;;;2.15;54.77;98871.63;5054992;28;20123;-69
2023/04/06 08:02:52;;;;;;;17.33;9.73;;;;;;;2.23;54.28;98871.31;5056123;28;20032;-68
2023/04/06 08:05:17;;;;;;;22.20;10.63;;;;;;;2.28;54.95;98861.66;5052396;28;20033;-69
2023/04/06 08:07:43;;;;;;;22.65;11.63;;;;;;;2.33;54.51;98867.22;5061122;28;20032;-69
2023/04/06 08:10:09;;;;;;;18.10;10.13;;;;;;;2.36;54.65;98864.06;5056075;28;20025;-69
2023/04/06 08:12:34;;;;;;;18.13;9.25;;;;;;;2.40;54.43;98867.09;5060119;28;20036;-70
2023/04/06 08:15:00;;;;;;;15.60;9.02;;;;;;;2.43;54.44;98855.81;5062895;28;20082;-69
2023/04/06 08:17:27;;;;;;;15.98;9.02;;;;;;;2.51;54.10;98863.59;5049656;28;20029;-70
2023/04/06 08:19:52;;;;;;;15.13;8.95;;;;;;;2.62;54.34;98856.53;5055324;28;20027;-70
2023/04/06 08:22:18;;;;;;;14.20;8.85;;;;;;;2.77;54.19;98861.50;5054365;28;20029;-69
2023/04/06 08:24:43;;;;;;;14.20;8.20;;;;;;;2.92;54.41;98863.72;5054031;28;20012;-69
2023/04/06 08:27:09;;;;;;;15.85;9.35;;;;;;;3.02;52.84;98855.03;5068874;28;20471;-70
2023/04/06 08:29:34;;;;;;;15.77;8.88;;;;;;;3.07;51.12;98863.25;5050858;28;20499;-69
2023/04/06 08:32:00;;;;;;;13.98;8.77;;;;;;;3.05;50.59;98857.25;5062436;28;20094;-70
2023/04/06 08:34:25;;;;;;;13.23;8.02;;;;;;;3.02;51.32;98857.75;5061492;28;20229;-71
2023/04/06 08:36:51;;;;;;;14.95;9.10;;;;;;;3.09;51.98;98853.84;5056543;28;20687;-70
2023/04/06 08:39:16;;;;;;;17.55;9.60;;;;;;;3.25;51.92;98848.75;5055725;28;20021;-70
2023/04/06 08:41:43;;;;;;;15.35;9.30;;;;;;;3.39;52.38;98847.41;5060360;28;20021;-71
2023/04/06 08:44:08;;;;;;;15.38;8.63;;;;;;;3.53;50.65;98844.44;5081831;28;20392;-69
2023/04/06 08:46:34;;;;;;;11.95;7.45;;;;;;;3.51;50.87;98844.66;5089347;28;20032;-69
2023/04/06 08:49:02;;;;;;;12.60;9.15;;;;;;;3.52;50.26;98846.31;5072457;28;20024;-70
2023/04/06 08:51:29;;;;;;;15.20;8.40;;;;;;;3.48;48.37;98842.44;5089609;28;20048;-68
2023/04/06 08:53:56;;;;;;;11.65;7.28;;;;;;;3.40;49.15;98838.22;5073430;28;20032;-71
2023/04/06 08:56:26;;;;;;;10.63;7.20;;;;;;;3.35;49.01;98843.53;5090571;28;20071;-70
2023/04/06 08:58:53;;;;;;;12.70;8.48;;;;;;;3.32;48.36;98841.28;5071968;28;20024;-71
2023/04/06 09:01:21;;;;;;;13.95;8.05;;;;;;;3.27;47.37;98849.31;5092506;28;20024;-70
2023/04/06 09:03:48;;;;;;;13.05;8.73;;;;;;;3.21;48.84;98842.16;5092698;28;20472;-71
2023/04/06 09:06:14;;;;;;;18.85;9.52;;;;;;;3.25;49.16;98836.00;5091440;28;20036;-71
2023/04/06 09:08:41;;;;;;;18.17;9.05;;;;;;;3.34;48.64;98838.34;5090378;28;20373;-71
2023/04/06 09:11:08;;;;;;;15.80;8.52;;;;;;;3.38;47.51;98843.03;5094161;28;20077;-71
2023/04/06 09:13:45;;;;;;;15.48;9.63;;;;;;;3.33;48.34;98839.41;5093935;28;20090;-71
2023/04/06 09:16:11;;;;;;;13.45;8.80;;;;;;;3.30;47.78;98843.41;5086571;28;20036;-70
2023/04/06 09:18:36;;;;;;;11.35;7.97;;;;;;;3.32;48.11;98835.06;5091676;28;20032;-69
2023/04/06 09:21:05;;;;;;;12.13;7.40;;;;;;;3.41;48.85;98825.50;5072753;28;20036;-70
2023/04/06 09:23:30;;;;;;;12.00;7.65;;;;;;;3.57;47.85;98835.56;5091853;28;20016;-72
2023/04/06 09:26:06;;;;;;;13.02;8.82;;;;;;;3.60;48.24;98837.00;5093678;28;20016;-71
2023/04/06 09:28:45;;;;;;;14.05;8.32;;;;;;;3.66;47.48;98830.59;5094048;28;20028;-71
2023/04/06 09:31:11;;;;;;;13.20;8.48;;;;;;;3.71;48.41;98835.28;5072689;28;20087;-73
2023/04/06 09:33:41;;;;;;;13.18;8.40;;;;;;;3.78;48.20;98832.44;5093458;28;20123;-70
2023/04/06 09:36:10;;;;;;;16.95;9.65;;;;;;;3.80;47.73;98830.28;5075178;28;20024;-71
2023/04/06 09:38:54;;;;;;;11.95;8.50;;;;;;;3.83;48.48;98819.78;5093607;28;20421;-70
2023/04/06 09:41:27;;;;;;;16.10;8.82;;;;;;;3.90;47.63;98824.22;5092329;28;20073;-70
2023/04/06 09:44:03;;;;;;;14.23;8.18;;;;;;;3.92;47.45;98814.78;5093115;28;20064;-72
2023/04/06 09:46:40;;;;;;;14.48;8.50;;;;;;;4.00;47.33;98819.81;5094056;28;20537;-71
2023/04/06 09:49:07;;;;;;;11.43;7.32;;;;;;;4.05;47.06;98810.94;5089557;28;20024;-70
2023/04/06 09:51:38;;;;;;;14.68;8.40;;;;;;;4.20;47.17;98809.56;5075837;28;20032;-70
2023/04/06 09:54:04;;;;;;;12.07;8.35;;;;;;;4.35;47.17;98809.00;5094054;28;20028;-70
2023/04/06 09:56:48;;;;;;;12.65;7.28;;;;;;;4.42;47.02;98810.47;5093854;28;20074;-70
2023/04/06 09:59:38;;;;;;;13.90;7.78;;;;;;;4.49;46.47;98799.44;5091790;28;20035;-70
2023/04/06 10:02:05;;;;;;;16.10;8.48;;;;;;;4.50;45.24;98802.97;5050291;28;20086;-70
2023/04/06 10:04:42;;;;;;;12.45;8.50;;;;;;;4.38;46.40;98806.59;5092219;28;20100;-70
2023/04/06 10:07:11;;;;;;;12.93;8.10;;;;;;;4.48;45.83;98805.97;5092912;28;20027;-70
2023/04/06 10:09:38;;;;;;;13.32;8.40;;;;;;;4.48;46.15;98792.38;5092105;28;20069;-70
2023/04/06 10:12:06;;;;;;;12.98;8.13;;;;;;;4.47;45.32;98790.72;5092970;28;20043;-70
2023/04/06 10:14:37;;;;;;;15.65;7.25;;;;;;;4.41;45.48;98789.00;5093740;28;20027;-70
2023/04/06 10:17:04;;;;;;;12.90;8.65;;;;;;;4.42;46.07;98786.03;5093721;28;20024;-70
2023/04/06 10:19:41;;;;;;;13.70;8.27;;;;;;;4.52;46.15;98781.81;5093506;28;20038;-70
2023/04/06 10:22:10;;;;;;;12.75;9.05;;;;;;;4.64;45.20;98774.41;5075023;28;20955;-70
2023/04/06 10:24:35;;;;;;;12.85;8.27;;;;;;;4.68;44.98;98772.84;5093865;28;20039;-70
2023/04/06 10:27:02;;;;;;;12.52;7.75;;;;;;;4.66;44.99;98783.13;5090669;28;20028;-69
2023/04/06 10:29:27;;;;;;;13.75;8.65;;;;;;;4.67;44.55;98767.66;5074505;28;20020;-69
2023/04/06 10:31:55;;;;;;;47.53;22.27;;;;;;;4.70;45.26;98770.66;5093073;28;20098;-70
2023/04/06 10:34:21;;;;;;;17.33;9.02;;;;;;;4.83;45.72;98765.97;5093109;28;20035;-70
2023/04/06 10:36:46;;;;;;;13.18;8.68;;;;;;;4.90;45.37;98766.59;5092929;28;20020;-70
2023/04/06 10:39:12;;;;;;;13.60;8.98;;;;;;;5.00;44.40;98766.75;5092872;28;20388;-70
2023/04/06 10:41:45;;;;;;;14.90;9.25;;;;;;;5.07;45.44;98769.28;5092764;28;20107;-70
2023/04/06 10:44:21;;;;;;;14.73;8.57;;;;;;;5.24;44.58;98758.31;5054899;28;20044;-70
2023/04/06 10:46:57;;;;;;;16.58;9.18;;;;;;;5.35;44.20;98761.97;5052759;28;20108;-70
2023/04/06 10:49:25;;;;;;;15.32;9.63;;;;;;;5.36;44.65;98750.88;5050494;28;20154;-70
2023/04/06 10:51:55;;;;;;;14.85;9.23;;;;;;;5.42;44.97;98767.25;5054362;28;20115;-70
2023/04/06 10:54:26;;;;;;;18.33;10.70;;;;;;;5.55;45.09;98755.94;5073145;28;20032;-70
2023/04/06 10:56:52;;;;;;;75.72;23.08;;;;;;;5.74;45.65;98752.88;5071612;28;20051;-70
2023/04/06 10:59:21;;;;;;;80.65;27.75;;;;;;;5.85;45.18;98746.47;5053807;28;20024;-70
2023/04/06 11:01:46;;;;;;;34.65;14.43;;;;;;;5.93;43.85;98737.00;5071882;28;20434;-70
2023/04/06 11:04:16;;;;;;;35.17;16.52;;;;;;;5.98;44.20;98734.31;5072127;28;20035;-70
2023/04/06 11:06:47;;;;;;;23.50;11.88;;;;;;;5.97;44.16;98740.84;5072479;28;20020;-69
2023/04/06 11:09:23;;;;;;;20.25;11.00;;;;;;;5.95;43.54;98737.56;5071994;28;20127;-70
2023/04/06 11:11:48;;;;;;;21.58;11.18;;;;;;;5.94;43.96;98744.91;5072548;28;20037;-70
2023/04/06 11:14:14;;;;;;;48.80;17.33;;;;;;;6.05;44.47;98734.13;5072732;28;20059;-70
2023/04/06 11:16:39;;;;;;;67.72;23.55;;;;;;;6.15;45.01;98741.56;5072370;28;20366;-71
2023/04/06 11:19:09;;;;;;;40.45;14.70;;;;;;;6.30;43.54;98733.50;5054209;28;20032;-70